sensor_id;sensor_type;location;lat;lon;timestamp;pressure;altitude;pressure_sealevel;temperature;humidity
63019;BME280;49105;46.046;10.760;2023-05-22T00:00:12;95725.94;;;14.62;72.97
63019;BME280;49105;46.046;10.760;2023-05-22T00:02:49;95716.38;;;14.61;73.06
63019;BME280;49105;46.046;10.760;2023-05-22T00:05:23;95726.41;;;14.64;73.21
63019;BME280;49105;46.046;10.760;2023-05-22T00:07:57;95730.38;;;14.67;73.14
63019;BME280;49105;46.046;10.760;2023-05-22T00:10:23;95720.50;;;14.67;72.57
63019;BME280;49105;46.046;10.760;2023-05-22T00:12:49;95721.59;;;14.66;72.95
63019;BME280;49105;46.046;10.760;2023-05-22T00:15:23;95720.50;;;14.67;72.70
63019;BME280;49105;46.046;10.760;2023-05-22T00:20:46;95716.66;;;14.73;72.48
63019;BME280;49105;46.046;10.760;2023-05-22T00:23:21;95718.34;;;14.69;72.38
63019;BME280;49105;46.046;10.760;2023-05-22T00:25:58;95716.28;;;14.66;72.94
63019;BME280;49105;46.046;10.760;2023-05-22T00:28:27;95718.94;;;14.66;72.96
63019;BME280;49105;46.046;10.760;2023-05-22T00:31:02;95724.84;;;14.63;72.88
63019;BME280;49105;46.046;10.760;2023-05-22T00:33:27;95715.47;;;14.52;73.65
63019;BME280;49105;46.046;10.760;2023-05-22T00:35:56;95712.31;;;14.50;73.70
63019;BME280;49105;46.046;10.760;2023-05-22T00:38:32;95710.13;;;14.52;73.63
63019;BME280;49105;46.046;10.760;2023-05-22T00:41:01;95715.97;;;14.54;73.28
63019;BME280;49105;46.046;10.760;2023-05-22T00:43:33;95711.13;;;14.56;73.38
63019;BME280;49105;46.046;10.760;2023-05-22T00:45:58;95715.19;;;14.53;73.15
63019;BME280;49105;46.046;10.760;2023-05-22T00:48:24;95719.22;;;14.51;73.61
63019;BME280;49105;46.046;10.760;2023-05-22T00:50:56;95720.84;;;14.47;73.74
63019;BME280;49105;46.046;10.760;2023-05-22T00:53:27;95712.88;;;14.47;73.95
63019;BME280;49105;46.046;10.760;2023-05-22T00:55:53;95714.44;;;14.48;73.65
63019;BME280;49105;46.046;10.760;2023-05-22T00:58:19;95706.56;;;14.43;73.95
63019;BME280;49105;46.046;10.760;2023-05-22T01:00:45;95700.44;;;14.42;73.45
63019;BME280;49105;46.046;10.760;2023-05-22T01:03:11;95703.19;;;14.37;73.73
63019;BME280;49105;46.046;10.760;2023-05-22T01:05:37;95712.56;;;14.34;74.12
63019;BME280;49105;46.046;10.760;2023-05-22T01:08:12;95713.84;;;14.37;73.49
63019;BME280;49105;46.046;10.760;2023-05-22T01:10:47;95716.72;;;14.40;73.34
63019;BME280;49105;46.046;10.760;2023-05-22T01:16:23;95720.06;;;14.46;73.38
63019;BME280;49105;46.046;10.760;2023-05-22T01:21:30;95716.06;;;14.49;73.68
63019;BME280;49105;46.046;10.760;2023-05-22T01:31:26;95717.41;;;14.46;73.54
63019;BME280;49105;46.046;10.760;2023-05-22T01:34:06;95719.28;;;14.46;73.92
63019;BME280;49105;46.046;10.760;2023-05-22T01:39:21;95720.97;;;14.42;73.93
63019;BME280;49105;46.046;10.760;2023-05-22T01:41:50;95716.91;;;14.44;73.90
63019;BME280;49105;46.046;10.760;2023-05-22T01:44:21;95721.94;;;14.46;73.66
63019;BME280;49105;46.046;10.760;2023-05-22T01:46:53;95725.19;;;14.43;73.56
63019;BME280;49105;46.046;10.760;2023-05-22T01:49:24;95712.47;;;14.39;73.89
63019;BME280;49105;46.046;10.760;2023-05-22T01:51:56;95717.78;;;14.39;73.37
63019;BME280;49105;46.046;10.760;2023-05-22T01:57:49;95719.97;;;14.37;73.84
63019;BME280;49105;46.046;10.760;2023-05-22T02:00:11;95716.00;;;14.35;73.58
63019;BME280;49105;46.046;10.760;2023-05-22T02:02:42;95714.22;;;14.30;73.95
63019;BME280;49105;46.046;10.760;2023-05-22T02:05:09;95709.47;;;14.27;74.34
63019;BME280;49105;46.046;10.760;2023-05-22T02:07:41;95714.13;;;14.22;74.17
63019;BME280;49105;46.046;10.760;2023-05-22T02:10:19;95711.47;;;14.22;74.00
63019;BME280;49105;46.046;10.760;2023-05-22T02:12:51;95710.88;;;14.25;74.52
63019;BME280;49105;46.046;10.760;2023-05-22T02:15:26;95717.56;;;14.22;74.47
63019;BME280;49105;46.046;10.760;2023-05-22T02:18:01;95712.25;;;14.22;74.22
63019;BME280;49105;46.046;10.760;2023-05-22T02:20:36;95712.25;;;14.22;73.91
63019;BME280;49105;46.046;10.760;2023-05-22T02:23:07;95710.66;;;14.21;74.06
63019;BME280;49105;46.046;10.760;2023-05-22T02:25:39;95712.53;;;14.21;73.99
63019;BME280;49105;46.046;10.760;2023-05-22T02:28:05;95715.47;;;14.19;74.03
63019;BME280;49105;46.046;10.760;2023-05-22T02:30:30;95707.13;;;14.12;74.68
63019;BME280;49105;46.046;10.760;2023-05-22T02:33:08;95700.19;;;14.11;74.38
63019;BME280;49105;46.046;10.760;2023-05-22T02:35:33;95700.19;;;14.11;74.48
63019;BME280;49105;46.046;10.760;2023-05-22T02:38:10;95706.59;;;14.10;74.58
63019;BME280;49105;46.046;10.760;2023-05-22T02:40:45;95698.63;;;14.10;74.31
63019;BME280;49105;46.046;10.760;2023-05-22T02:43:11;95694.06;;;14.10;73.94
63019;BME280;49105;46.046;10.760;2023-05-22T02:45:48;95694.19;;;14.05;74.27
63019;BME280;49105;46.046;10.760;2023-05-22T02:48:22;95703.53;;;14.03;74.09
63019;BME280;49105;46.046;10.760;2023-05-22T02:50:57;95693.88;;;14.07;74.56
63019;BME280;49105;46.046;10.760;2023-05-22T02:53:28;95698.63;;;14.10;74.58
63019;BME280;49105;46.046;10.760;2023-05-22T02:56:00;95700.19;;;14.11;73.94
63019;BME280;49105;46.046;10.760;2023-05-22T02:58:25;95700.69;;;14.13;73.90
63019;BME280;49105;46.046;10.760;2023-05-22T03:00:51;95691.16;;;14.12;74.28
63019;BME280;49105;46.046;10.760;2023-05-22T03:03:26;95692.91;;;14.17;73.79
63019;BME280;49105;46.046;10.760;2023-05-22T03:06:02;95690.06;;;14.13;73.91
63019;BME280;49105;46.046;10.760;2023-05-22T03:08:28;95681.06;;;14.09;73.94
63019;BME280;49105;46.046;10.760;2023-05-22T03:10:57;95688.53;;;14.07;74.33
63019;BME280;49105;46.046;10.760;2023-05-22T03:13:23;95680.38;;;14.03;74.55
63019;BME280;49105;46.046;10.760;2023-05-22T03:15:55;95684.09;;;14.02;74.63
63019;BME280;49105;46.046;10.760;2023-05-22T03:18:20;95683.22;;;14.07;74.02
63019;BME280;49105;46.046;10.760;2023-05-22T03:20:46;95689.63;;;14.06;73.90
63019;BME280;49105;46.046;10.760;2023-05-22T03:23:11;95688.84;;;14.05;74.19
63019;BME280;49105;46.046;10.760;2023-05-22T03:25:37;95683.03;;;14.03;74.34
63019;BME280;49105;46.046;10.760;2023-05-22T03:28:02;95678.22;;;14.05;74.32
63019;BME280;49105;46.046;10.760;2023-05-22T03:30:31;95680.28;;;14.08;74.01
63019;BME280;49105;46.046;10.760;2023-05-22T03:35:56;95673.97;;;14.04;74.14
63019;BME280;49105;46.046;10.760;2023-05-22T03:38:30;95680.09;;;14.05;73.92
63019;BME280;49105;46.046;10.760;2023-05-22T03:40:55;95681.66;;;14.06;73.87
63019;BME280;49105;46.046;10.760;2023-05-22T03:43:30;95675.53;;;14.05;74.05
63019;BME280;49105;46.046;10.760;2023-05-22T03:45:55;95676.22;;;13.97;73.91
63019;BME280;49105;46.046;10.760;2023-05-22T03:48:32;95682.72;;;13.91;74.53
63019;BME280;49105;46.046;10.760;2023-05-22T03:51:07;95670.47;;;13.90;74.44
63019;BME280;49105;46.046;10.760;2023-05-22T03:53:41;95670.47;;;13.90;74.87
63019;BME280;49105;46.046;10.760;2023-05-22T03:56:10;95668.34;;;13.92;75.08
63019;BME280;49105;46.046;10.760;2023-05-22T03:58:38;95668.81;;;13.94;74.35
63019;BME280;49105;46.046;10.760;2023-05-22T04:01:03;95668.53;;;13.96;74.16
63019;BME280;49105;46.046;10.760;2023-05-22T04:03:29;95678.47;;;13.90;74.91
63019;BME280;49105;46.046;10.760;2023-05-22T04:06:04;95674.59;;;13.82;74.65
63019;BME280;49105;46.046;10.760;2023-05-22T04:08:39;95682.09;;;13.80;74.46
63019;BME280;49105;46.046;10.760;2023-05-22T04:11:04;95673.03;;;13.81;74.87
63019;BME280;49105;46.046;10.760;2023-05-22T04:13:32;95674.31;;;13.84;74.75
63019;BME280;49105;46.046;10.760;2023-05-22T04:15:58;95662.81;;;13.88;74.55
63019;BME280;49105;46.046;10.760;2023-05-22T04:18:31;95667.69;;;13.81;75.09
63019;BME280;49105;46.046;10.760;2023-05-22T04:20:57;95671.34;;;13.72;75.21
63019;BME280;49105;46.046;10.760;2023-05-22T04:23:31;95677.22;;;13.69;75.02
63019;BME280;49105;46.046;10.760;2023-05-22T04:26:00;95674.28;;;13.70;75.13
63019;BME280;49105;46.046;10.760;2023-05-22T04:28:32;95670.44;;;13.76;75.34
63019;BME280;49105;46.046;10.760;2023-05-22T04:31:04;95673.03;;;13.81;75.08
63019;BME280;49105;46.046;10.760;2023-05-22T04:33:33;95678.84;;;13.83;75.35
63019;BME280;49105;46.046;10.760;2023-05-22T04:36:04;95666.03;;;13.85;74.59
63019;BME280;49105;46.046;10.760;2023-05-22T04:38:30;95676.31;;;13.92;74.60
63019;BME280;49105;46.046;10.760;2023-05-22T04:41:01;95675.06;;;14.03;74.50
63019;BME280;49105;46.046;10.760;2023-05-22T04:43:26;95673.41;;;14.21;74.70
63019;BME280;49105;46.046;10.760;2023-05-22T04:45:52;95670.47;;;14.36;74.48
63019;BME280;49105;46.046;10.760;2023-05-22T04:48:21;95670.56;;;14.45;74.00
63019;BME280;49105;46.046;10.760;2023-05-22T04:50:49;95666.25;;;14.49;74.44
63019;BME280;49105;46.046;10.760;2023-05-22T04:53:24;95666.03;;;14.59;73.81
63019;BME280;49105;46.046;10.760;2023-05-22T04:55:57;95671.97;;;14.70;73.85
63019;BME280;49105;46.046;10.760;2023-05-22T04:58:34;95668.59;;;14.78;73.95
63019;BME280;49105;46.046;10.760;2023-05-22T05:01:07;95674.41;;;14.94;73.48
63019;BME280;49105;46.046;10.760;2023-05-22T05:03:39;95663.94;;;14.98;73.65
63019;BME280;49105;46.046;10.760;2023-05-22T05:06:04;95670.41;;;15.05;73.56
63019;BME280;49105;46.046;10.760;2023-05-22T05:08:32;95670.41;;;15.19;73.05
63019;BME280;49105;46.046;10.760;2023-05-22T05:14:04;95664.19;;;15.46;72.85
63019;BME280;49105;46.046;10.760;2023-05-22T05:16:35;95655.63;;;15.58;72.53
63019;BME280;49105;46.046;10.760;2023-05-22T05:19:12;95658.75;;;15.51;72.26
63019;BME280;49105;46.046;10.760;2023-05-22T05:21:37;95650.84;;;15.46;72.52
63019;BME280;49105;46.046;10.760;2023-05-22T05:24:03;95652.53;;;15.42;72.55
63019;BME280;49105;46.046;10.760;2023-05-22T05:26:38;95650.38;;;15.44;72.38
63019;BME280;49105;46.046;10.760;2023-05-22T05:29:03;95648.34;;;15.50;72.14
63019;BME280;49105;46.046;10.760;2023-05-22T05:31:32;95644.13;;;15.49;72.08
63019;BME280;49105;46.046;10.760;2023-05-22T05:33:58;95635.63;;;15.47;72.12
63019;BME280;49105;46.046;10.760;2023-05-22T05:36:23;95635.03;;;15.50;72.17
63019;BME280;49105;46.046;10.760;2023-05-22T05:38:55;95628.78;;;15.54;72.07
63019;BME280;49105;46.046;10.760;2023-05-22T05:41:22;95636.97;;;15.58;71.94
63019;BME280;49105;46.046;10.760;2023-05-22T05:46:32;95634.94;;;15.77;71.65
63019;BME280;49105;46.046;10.760;2023-05-22T05:48:57;95636.19;;;15.80;71.58
63019;BME280;49105;46.046;10.760;2023-05-22T05:51:23;95629.63;;;15.86;71.42
63019;BME280;49105;46.046;10.760;2023-05-22T05:53:57;95633.91;;;15.96;71.29
63019;BME280;49105;46.046;10.760;2023-05-22T05:56:22;95633.16;;;16.04;71.20
63019;BME280;49105;46.046;10.760;2023-05-22T05:58:57;95635.06;;;16.03;71.11
63019;BME280;49105;46.046;10.760;2023-05-22T06:01:32;95633.22;;;16.12;71.04
63019;BME280;49105;46.046;10.760;2023-05-22T06:04:04;95631.84;;;16.24;71.12
63019;BME280;49105;46.046;10.760;2023-05-22T06:06:48;95637.03;;;16.29;70.96
63019;BME280;49105;46.046;10.760;2023-05-22T06:09:16;95634.72;;;16.36;70.58
63019;BME280;49105;46.046;10.760;2023-05-22T06:11:42;95637.91;;;16.47;70.42
63019;BME280;49105;46.046;10.760;2023-05-22T06:14:13;95636.50;;;16.49;70.08
63019;BME280;49105;46.046;10.760;2023-05-22T06:16:48;95633.19;;;16.44;70.23
63019;BME280;49105;46.046;10.760;2023-05-22T06:19:23;95628.94;;;16.43;70.15
63019;BME280;49105;46.046;10.760;2023-05-22T06:21:48;95635.53;;;16.45;70.63
63019;BME280;49105;46.046;10.760;2023-05-22T06:24:13;95632.22;;;16.40;70.34
63019;BME280;49105;46.046;10.760;2023-05-22T06:26:39;95638.97;;;16.37;70.29
63019;BME280;49105;46.046;10.760;2023-05-22T06:29:04;95631.41;;;16.30;70.26
63019;BME280;49105;46.046;10.760;2023-05-22T06:31:36;95628.09;;;16.33;70.57
63019;BME280;49105;46.046;10.760;2023-05-22T06:34:03;95623.28;;;16.44;70.47
63019;BME280;49105;46.046;10.760;2023-05-22T06:36:34;95626.63;;;16.58;70.01
63019;BME280;49105;46.046;10.760;2023-05-22T06:39:01;95622.88;;;16.68;69.69
63019;BME280;49105;46.046;10.760;2023-05-22T06:41:27;95610.63;;;16.67;70.00
63019;BME280;49105;46.046;10.760;2023-05-22T06:44:04;95619.88;;;16.61;69.52
63019;BME280;49105;46.046;10.760;2023-05-22T06:46:30;95616.59;;;16.64;69.75
63019;BME280;49105;46.046;10.760;2023-05-22T06:49:05;95609.84;;;16.67;69.44
63019;BME280;49105;46.046;10.760;2023-05-22T06:51:30;95604.03;;;16.73;69.59
63019;BME280;49105;46.046;10.760;2023-05-22T06:56:53;95607.06;;;16.89;68.79
63019;BME280;49105;46.046;10.760;2023-05-22T06:59:24;95605.50;;;16.97;68.93
63019;BME280;49105;46.046;10.760;2023-05-22T07:01:56;95600.59;;;16.99;68.84
63019;BME280;49105;46.046;10.760;2023-05-22T07:04:33;95602.50;;;17.07;68.82
63019;BME280;49105;46.046;10.760;2023-05-22T07:06:58;95598.25;;;17.15;68.46
63019;BME280;49105;46.046;10.760;2023-05-22T07:09:30;95596.84;;;17.17;68.13
63019;BME280;49105;46.046;10.760;2023-05-22T07:12:14;95598.41;;;17.18;68.56
63019;BME280;49105;46.046;10.760;2023-05-22T07:14:48;95604.38;;;17.15;68.47
63019;BME280;49105;46.046;10.760;2023-05-22T07:17:14;95607.38;;;17.14;68.20
63019;BME280;49105;46.046;10.760;2023-05-22T07:19:40;95600.00;;;17.19;68.22
63019;BME280;49105;46.046;10.760;2023-05-22T07:22:06;95604.72;;;17.22;68.00
63019;BME280;49105;46.046;10.760;2023-05-22T07:24:34;95595.75;;;17.27;67.84
63019;BME280;49105;46.046;10.760;2023-05-22T07:27:07;95589.91;;;17.33;67.56
63019;BME280;49105;46.046;10.760;2023-05-22T07:29:33;95586.44;;;17.42;67.49
63019;BME280;49105;46.046;10.760;2023-05-22T07:32:05;95592.75;;;17.46;67.03
63019;BME280;49105;46.046;10.760;2023-05-22T07:34:30;95581.88;;;17.51;67.00
63019;BME280;49105;46.046;10.760;2023-05-22T07:37:05;95581.25;;;17.54;67.04
63019;BME280;49105;46.046;10.760;2023-05-22T07:39:39;95575.09;;;17.62;67.06
63019;BME280;49105;46.046;10.760;2023-05-22T07:42:20;95579.47;;;17.67;66.70
63019;BME280;49105;46.046;10.760;2023-05-22T07:44:47;95570.94;;;17.73;66.64
63019;BME280;49105;46.046;10.760;2023-05-22T07:47:19;95578.19;;;17.81;66.28
63019;BME280;49105;46.046;10.760;2023-05-22T07:49:44;95567.16;;;17.92;65.65
63019;BME280;49105;46.046;10.760;2023-05-22T07:52:09;95559.09;;;18.00;65.61
63019;BME280;49105;46.046;10.760;2023-05-22T07:54:44;95557.00;;;18.06;65.37
63019;BME280;49105;46.046;10.760;2023-05-22T07:57:19;95554.16;;;18.11;65.71
63019;BME280;49105;46.046;10.760;2023-05-22T07:59:54;95552.84;;;18.17;65.68
63019;BME280;49105;46.046;10.760;2023-05-22T08:02:20;95550.00;;;18.22;65.02
63019;BME280;49105;46.046;10.760;2023-05-22T08:04:46;95544.28;;;18.32;64.94
63019;BME280;49105;46.046;10.760;2023-05-22T08:07:18;95533.84;;;18.40;65.05
63019;BME280;49105;46.046;10.760;2023-05-22T08:09:46;95537.44;;;18.44;65.04
63019;BME280;49105;46.046;10.760;2023-05-22T08:12:12;95534.56;;;18.49;64.80
63019;BME280;49105;46.046;10.760;2023-05-22T08:14:46;95533.94;;;18.52;64.57
63019;BME280;49105;46.046;10.760;2023-05-22T08:17:30;95533.72;;;18.57;64.28
63019;BME280;49105;46.046;10.760;2023-05-22T08:19:55;95525.34;;;18.58;64.13
63019;BME280;49105;46.046;10.760;2023-05-22T08:22:21;95528.16;;;18.62;63.89
63019;BME280;49105;46.046;10.760;2023-05-22T08:27:49;95519.78;;;18.72;63.53
63019;BME280;49105;46.046;10.760;2023-05-22T08:30:15;95512.97;;;18.75;63.38
63019;BME280;49105;46.046;10.760;2023-05-22T08:32:50;95503.50;;;18.77;63.50
63019;BME280;49105;46.046;10.760;2023-05-22T08:38:00;95493.59;;;18.90;63.32
63019;BME280;49105;46.046;10.760;2023-05-22T08:40:31;95494.19;;;18.96;63.29
63019;BME280;49105;46.046;10.760;2023-05-22T08:42:58;95487.69;;;18.97;62.95
63019;BME280;49105;46.046;10.760;2023-05-22T08:45:24;95480.91;;;18.99;63.03
63019;BME280;49105;46.046;10.760;2023-05-22T08:48:02;95483.50;;;19.08;63.14
63019;BME280;49105;46.046;10.760;2023-05-22T08:50:35;95473.28;;;19.22;62.81
63019;BME280;49105;46.046;10.760;2023-05-22T08:53:04;95465.25;;;19.34;62.95
63019;BME280;49105;46.046;10.760;2023-05-22T08:55:38;95470.66;;;19.47;62.71
63019;BME280;49105;46.046;10.760;2023-05-22T09:01:22;95463.44;;;19.72;62.04
63019;BME280;49105;46.046;10.760;2023-05-22T09:03:51;95458.38;;;19.82;60.56
63019;BME280;49105;46.046;10.760;2023-05-22T09:18:28;95444.25;;;20.35;57.41
63019;BME280;49105;46.046;10.760;2023-05-22T09:21:03;95437.94;;;20.43;56.95
63019;BME280;49105;46.046;10.760;2023-05-22T09:23:31;95434.72;;;20.49;55.87
63019;BME280;49105;46.046;10.760;2023-05-22T09:25:57;95443.31;;;20.55;54.78
63019;BME280;49105;46.046;10.760;2023-05-22T09:28:32;95433.88;;;20.61;54.13
63019;BME280;49105;46.046;10.760;2023-05-22T09:30:59;95433.19;;;20.64;53.84
63019;BME280;49105;46.046;10.760;2023-05-22T09:33:25;95430.38;;;20.73;54.02
63019;BME280;49105;46.046;10.760;2023-05-22T09:35:54;95429.91;;;20.83;54.01
63019;BME280;49105;46.046;10.760;2023-05-22T09:38:29;95431.31;;;20.93;53.84
63019;BME280;49105;46.046;10.760;2023-05-22T09:41:00;95429.69;;;21.04;53.71
63019;BME280;49105;46.046;10.760;2023-05-22T09:43:25;95426.06;;;21.12;52.56
63019;BME280;49105;46.046;10.760;2023-05-22T09:46:03;95416.34;;;21.23;53.14
63019;BME280;49105;46.046;10.760;2023-05-22T09:48:49;95414.72;;;21.35;51.83
63019;BME280;49105;46.046;10.760;2023-05-22T09:51:21;95412.56;;;21.40;50.09
63019;BME280;49105;46.046;10.760;2023-05-22T09:53:50;95404.66;;;21.47;47.49
63019;BME280;49105;46.046;10.760;2023-05-22T09:56:24;95405.53;;;21.51;45.85
63019;BME280;49105;46.046;10.760;2023-05-22T09:59:04;95413.00;;;21.58;46.45
63019;BME280;49105;46.046;10.760;2023-05-22T10:04:35;95402.81;;;21.67;45.10
63019;BME280;49105;46.046;10.760;2023-05-22T10:07:11;95396.38;;;21.72;45.06
63019;BME280;49105;46.046;10.760;2023-05-22T10:09:40;95400.72;;;21.76;44.70
63019;BME280;49105;46.046;10.760;2023-05-22T10:12:15;95397.41;;;21.83;44.87
63019;BME280;49105;46.046;10.760;2023-05-22T10:14:53;95396.38;;;21.88;44.56
63019;BME280;49105;46.046;10.760;2023-05-22T10:17:28;95389.59;;;21.94;45.60
63019;BME280;49105;46.046;10.760;2023-05-22T10:20:02;95392.88;;;22.03;45.60
63019;BME280;49105;46.046;10.760;2023-05-22T10:22:43;95389.13;;;22.08;45.08
63019;BME280;49105;46.046;10.760;2023-05-22T10:25:22;95384.69;;;22.15;45.41
63019;BME280;49105;46.046;10.760;2023-05-22T10:27:53;95390.25;;;22.22;45.44
63019;BME280;49105;46.046;10.760;2023-05-22T10:33:13;95380.19;;;22.39;44.50
63019;BME280;49105;46.046;10.760;2023-05-22T10:35:58;95384.22;;;22.48;44.90
63019;BME280;49105;46.046;10.760;2023-05-22T10:41:16;95372.28;;;22.69;45.04
63019;BME280;49105;46.046;10.760;2023-05-22T10:43:49;95370.50;;;22.76;45.36
63019;BME280;49105;46.046;10.760;2023-05-22T10:46:23;95369.00;;;22.79;45.13
63019;BME280;49105;46.046;10.760;2023-05-22T10:48:58;95365.19;;;22.80;44.33
63019;BME280;49105;46.046;10.760;2023-05-22T10:51:24;95364.50;;;22.87;44.13
63019;BME280;49105;46.046;10.760;2023-05-22T10:53:59;95359.28;;;22.94;44.52
63019;BME280;49105;46.046;10.760;2023-05-22T10:56:35;95352.44;;;23.00;44.53
63019;BME280;49105;46.046;10.760;2023-05-22T10:59:02;95359.75;;;22.99;42.13
63019;BME280;49105;46.046;10.760;2023-05-22T11:01:37;95365.94;;;23.00;42.02
63019;BME280;49105;46.046;10.760;2023-05-22T11:06:44;95363.63;;;23.21;41.25
63019;BME280;49105;46.046;10.760;2023-05-22T11:09:28;95354.19;;;23.35;40.28
63019;BME280;49105;46.046;10.760;2023-05-22T11:14:42;95339.16;;;23.34;38.13
63019;BME280;49105;46.046;10.760;2023-05-22T11:17:15;95342.38;;;23.43;38.80
63019;BME280;49105;46.046;10.760;2023-05-22T11:22:41;95338.97;;;23.72;38.59
63019;BME280;49105;46.046;10.760;2023-05-22T11:25:16;95345.44;;;23.91;37.46
63019;BME280;49105;46.046;10.760;2023-05-22T11:27:53;95345.94;;;24.00;38.38
63019;BME280;49105;46.046;10.760;2023-05-22T11:30:28;95348.41;;;24.12;38.71
63019;BME280;49105;46.046;10.760;2023-05-22T11:33:03;95341.47;;;24.11;38.17
63019;BME280;49105;46.046;10.760;2023-05-22T11:35:34;95338.06;;;24.18;38.74
63019;BME280;49105;46.046;10.760;2023-05-22T11:41:02;95332.97;;;24.43;39.32
63019;BME280;49105;46.046;10.760;2023-05-22T11:43:29;95325.34;;;24.52;39.28
63019;BME280;49105;46.046;10.760;2023-05-22T11:46:06;95328.13;;;24.59;39.35
63019;BME280;49105;46.046;10.760;2023-05-22T11:48:33;95325.50;;;24.66;38.46
63019;BME280;49105;46.046;10.760;2023-05-22T11:50:58;95334.38;;;24.63;37.68
63019;BME280;49105;46.046;10.760;2023-05-22T11:53:24;95323.53;;;24.63;36.90
63019;BME280;49105;46.046;10.760;2023-05-22T11:56:03;95323.94;;;24.62;37.74
63019;BME280;49105;46.046;10.760;2023-05-22T11:58:28;95322.44;;;24.68;38.26
63019;BME280;49105;46.046;10.760;2023-05-22T12:00:56;95325.59;;;24.73;37.50
63019;BME280;49105;46.046;10.760;2023-05-22T12:03:21;95321.50;;;24.53;37.26
63019;BME280;49105;46.046;10.760;2023-05-22T12:05:49;95322.94;;;24.43;37.21
63019;BME280;49105;46.046;10.760;2023-05-22T12:08:26;95330.69;;;24.45;37.10
63019;BME280;49105;46.046;10.760;2023-05-22T12:10:53;95322.94;;;24.43;36.87
63019;BME280;49105;46.046;10.760;2023-05-22T12:13:28;95315.63;;;24.47;36.86
63019;BME280;49105;46.046;10.760;2023-05-22T12:15:59;95313.75;;;24.51;36.77
63019;BME280;49105;46.046;10.760;2023-05-22T12:18:25;95318.72;;;24.46;36.12
63019;BME280;49105;46.046;10.760;2023-05-22T12:20:52;95319.88;;;24.45;36.69
63019;BME280;49105;46.046;10.760;2023-05-22T12:23:22;95313.66;;;24.41;36.99
63019;BME280;49105;46.046;10.760;2023-05-22T12:25:54;95316.63;;;24.36;36.25
63019;BME280;49105;46.046;10.760;2023-05-22T12:28:32;95313.66;;;24.41;36.54
63019;BME280;49105;46.046;10.760;2023-05-22T12:31:09;95307.91;;;24.46;36.41
63019;BME280;49105;46.046;10.760;2023-05-22T12:33:35;95307.59;;;24.55;37.07
63019;BME280;49105;46.046;10.760;2023-05-22T12:36:05;95303.88;;;24.66;37.40
63019;BME280;49105;46.046;10.760;2023-05-22T12:38:40;95301.19;;;24.70;35.96
63019;BME280;49105;46.046;10.760;2023-05-22T12:41:06;95301.56;;;24.68;36.55
63019;BME280;49105;46.046;10.760;2023-05-22T12:43:38;95309.41;;;24.77;36.84
63019;BME280;49105;46.046;10.760;2023-05-22T12:46:03;95309.88;;;24.86;36.90
63019;BME280;49105;46.046;10.760;2023-05-22T12:48:41;95309.50;;;24.88;36.34
63019;BME280;49105;46.046;10.760;2023-05-22T12:51:13;95303.25;;;24.84;36.83
63019;BME280;49105;46.046;10.760;2023-05-22T12:53:42;95308.69;;;24.84;36.45
63019;BME280;49105;46.046;10.760;2023-05-22T12:56:08;95304.81;;;24.85;36.32
63019;BME280;49105;46.046;10.760;2023-05-22T12:58:34;95309.78;;;24.79;35.93
63019;BME280;49105;46.046;10.760;2023-05-22T13:00:59;95307.47;;;24.78;36.17
63019;BME280;49105;46.046;10.760;2023-05-22T13:03:33;95297.81;;;24.80;36.55
63019;BME280;49105;46.046;10.760;2023-05-22T13:06:08;95296.34;;;24.86;36.12
63019;BME280;49105;46.046;10.760;2023-05-22T13:08:40;95290.94;;;24.86;36.58
63019;BME280;49105;46.046;10.760;2023-05-22T13:11:05;95297.50;;;24.89;36.43
63019;BME280;49105;46.046;10.760;2023-05-22T13:13:37;95297.53;;;24.92;35.95
63019;BME280;49105;46.046;10.760;2023-05-22T13:19:05;95293.28;;;24.91;35.14
63019;BME280;49105;46.046;10.760;2023-05-22T13:21:30;95295.56;;;24.86;35.83
63019;BME280;49105;46.046;10.760;2023-05-22T13:24:02;95288.25;;;24.90;36.27
63019;BME280;49105;46.046;10.760;2023-05-22T13:29:12;95286.78;;;24.99;36.49
63019;BME280;49105;46.046;10.760;2023-05-22T13:31:37;95281.50;;;25.10;36.51
63019;BME280;49105;46.046;10.760;2023-05-22T13:34:14;95275.63;;;25.08;35.48
63019;BME280;49105;46.046;10.760;2023-05-22T13:36:40;95278.78;;;25.10;35.93
63019;BME280;49105;46.046;10.760;2023-05-22T13:39:14;95281.88;;;25.12;36.03
63019;BME280;49105;46.046;10.760;2023-05-22T13:41:40;95277.34;;;25.23;36.35
63019;BME280;49105;46.046;10.760;2023-05-22T13:44:06;95272.78;;;25.35;36.29
63019;BME280;49105;46.046;10.760;2023-05-22T13:46:34;95262.75;;;25.42;36.33
63019;BME280;49105;46.046;10.760;2023-05-22T13:48:59;95265.91;;;25.48;36.46
63019;BME280;49105;46.046;10.760;2023-05-22T13:51:34;95262.06;;;25.53;36.50
63019;BME280;49105;46.046;10.760;2023-05-22T13:54:11;95262.88;;;25.60;36.75
63019;BME280;49105;46.046;10.760;2023-05-22T13:56:46;95254.38;;;25.65;36.42
63019;BME280;49105;46.046;10.760;2023-05-22T13:59:11;95254.78;;;25.64;36.29
63019;BME280;49105;46.046;10.760;2023-05-22T14:01:36;95257.91;;;25.73;36.44
63019;BME280;49105;46.046;10.760;2023-05-22T14:04:05;95254.47;;;25.80;35.85
63019;BME280;49105;46.046;10.760;2023-05-22T14:06:40;95261.50;;;25.84;36.10
63019;BME280;49105;46.046;10.760;2023-05-22T14:09:11;95258.41;;;25.86;35.55
63019;BME280;49105;46.046;10.760;2023-05-22T14:11:36;95256.84;;;25.85;35.38
63019;BME280;49105;46.046;10.760;2023-05-22T14:14:11;95252.22;;;25.89;35.77
63019;BME280;49105;46.046;10.760;2023-05-22T14:16:43;95240.59;;;25.92;35.32
63019;BME280;49105;46.046;10.760;2023-05-22T14:19:11;95239.84;;;25.95;35.38
63019;BME280;49105;46.046;10.760;2023-05-22T14:21:40;95241.38;;;25.96;35.01
63019;BME280;49105;46.046;10.760;2023-05-22T14:24:05;95244.88;;;25.93;34.74
63019;BME280;49105;46.046;10.760;2023-05-22T14:26:37;95243.72;;;25.94;34.57